createdAt,value
2018-06-20T00:00:05.946Z,991.11
2018-06-20T00:01:05.978Z,991.06
2018-06-20T00:02:05.962Z,991.04
2018-06-20T00:03:05.973Z,991.07
2018-06-20T00:04:05.969Z,991.04
2018-06-20T00:05:05.973Z,991.01
2018-06-20T00:06:05.983Z,991.05
2018-06-20T00:07:05.989Z,991.09
2018-06-20T00:08:05.999Z,991.06
2018-06-20T00:09:06.005Z,991.08
2018-06-20T00:10:06.012Z,991.06
2018-06-20T00:11:06.015Z,991.06
2018-06-20T00:12:06.024Z,991.05
2018-06-20T00:13:06.029Z,991.05
2018-06-20T00:14:06.034Z,991.08
2018-06-20T00:15:06.043Z,991.05
2018-06-20T00:16:06.048Z,991.04
2018-06-20T00:17:06.053Z,991.07
2018-06-20T00:18:06.062Z,991.01
2018-06-20T00:19:06.067Z,991.05
2018-06-20T00:20:06.072Z,991.04
2018-06-20T00:21:06.080Z,991.05
2018-06-20T00:22:06.085Z,991.02
2018-06-20T00:23:06.095Z,991.03
2018-06-20T00:24:06.161Z,991.04
2018-06-20T00:25:06.108Z,991.02
2018-06-20T00:26:06.108Z,991.01
2018-06-20T00:27:06.118Z,991.00
2018-06-20T00:28:06.126Z,990.98
2018-06-20T00:29:06.142Z,990.96
2018-06-20T00:30:06.140Z,990.95
2018-06-20T00:31:06.142Z,990.93
2018-06-20T00:32:06.147Z,990.96
2018-06-20T00:33:06.162Z,990.92
2018-06-20T00:34:06.161Z,990.90
2018-06-20T00:35:06.168Z,990.92
2018-06-20T00:36:06.175Z,990.87
2018-06-20T00:37:06.190Z,990.88
2018-06-20T00:38:06.187Z,990.85
2018-06-20T00:39:06.199Z,990.85
2018-06-20T00:40:06.203Z,990.84
2018-06-20T00:41:06.209Z,990.84
2018-06-20T00:42:06.212Z,990.85
2018-06-20T00:43:06.219Z,990.82
2018-06-20T00:44:06.225Z,990.82
2018-06-20T00:45:06.235Z,990.80
2018-06-20T00:46:06.237Z,990.79
2018-06-20T00:47:06.243Z,990.82
2018-06-20T00:48:06.251Z,990.81
2018-06-20T00:49:06.257Z,990.78
2018-06-20T00:50:06.262Z,990.78
2018-06-20T00:51:06.272Z,990.79
2018-06-20T00:52:06.275Z,990.80
2018-06-20T00:53:06.287Z,990.82
2018-06-20T00:54:06.284Z,990.81
2018-06-20T00:55:06.295Z,990.84
2018-06-20T00:56:06.300Z,990.87
2018-06-20T00:57:06.306Z,990.83
2018-06-20T00:58:06.311Z,990.86
2018-06-20T00:59:06.318Z,990.87
2018-06-20T01:00:06.322Z,990.86
2018-06-20T01:01:06.335Z,990.85
2018-06-20T01:02:06.339Z,990.89
2018-06-20T01:03:06.343Z,990.84
2018-06-20T01:04:06.348Z,990.87
2018-06-20T01:05:06.355Z,990.91
2018-06-20T01:06:06.362Z,990.92
2018-06-20T01:07:06.368Z,990.88
2018-06-20T01:08:06.373Z,990.84
2018-06-20T01:09:06.379Z,990.86
2018-06-20T01:10:06.394Z,990.83
2018-06-20T01:11:06.392Z,990.81
2018-06-20T01:12:06.400Z,990.81
2018-06-20T01:13:06.406Z,990.80
2018-06-20T01:14:06.412Z,990.84
2018-06-20T01:15:06.413Z,990.84
2018-06-20T01:16:06.423Z,990.85
2018-06-20T01:17:06.428Z,990.83
2018-06-20T01:18:06.435Z,990.83
2018-06-20T01:19:06.439Z,990.84
2018-06-20T01:20:06.479Z,990.84
2018-06-20T01:21:06.454Z,990.85
2018-06-20T01:22:21.003Z,990.81
2018-06-20T01:23:06.462Z,990.82
2018-06-20T01:24:06.476Z,990.76
2018-06-20T01:25:06.474Z,990.78
2018-06-20T01:26:06.490Z,990.77
2018-06-20T01:27:06.487Z,990.77
2018-06-20T01:28:06.493Z,990.75
2018-06-20T01:29:06.498Z,990.78
2018-06-20T01:30:06.533Z,990.75
2018-06-20T01:31:06.511Z,990.76
2018-06-20T01:32:06.513Z,990.79
2018-06-20T01:33:06.523Z,990.79
2018-06-20T01:34:06.530Z,990.77
2018-06-20T01:35:06.536Z,990.73
2018-06-20T01:36:06.546Z,990.73
2018-06-20T01:37:06.547Z,990.69
2018-06-20T01:38:06.556Z,990.70
2018-06-20T01:39:06.559Z,990.71
2018-06-20T01:40:06.564Z,990.70
2018-06-20T01:41:06.569Z,990.73
2018-06-20T01:42:06.578Z,990.67
2018-06-20T01:43:06.602Z,990.70
2018-06-20T01:44:06.593Z,990.69
2018-06-20T01:45:06.591Z,990.68
2018-06-20T01:46:06.600Z,990.62
2018-06-20T01:47:06.604Z,990.62
2018-06-20T01:48:06.615Z,990.61
2018-06-20T01:49:06.618Z,990.60
2018-06-20T01:50:06.622Z,990.61
2018-06-20T01:51:06.637Z,990.60
2018-06-20T01:52:06.639Z,990.62
2018-06-20T01:53:06.646Z,990.66
2018-06-20T01:54:06.647Z,990.66
2018-06-20T01:55:06.652Z,990.66
2018-06-20T01:56:06.661Z,990.65
2018-06-20T01:57:06.661Z,990.68
2018-06-20T01:58:06.670Z,990.66
2018-06-20T01:59:06.707Z,990.66
2018-06-20T02:00:06.688Z,990.63
2018-06-20T02:01:06.686Z,990.62
2018-06-20T02:02:06.695Z,990.64
2018-06-20T02:03:06.703Z,990.60
2018-06-20T02:04:06.706Z,990.61
2018-06-20T02:05:06.709Z,990.66
2018-06-20T02:06:06.717Z,990.60
2018-06-20T02:07:06.721Z,990.65
2018-06-20T02:08:06.734Z,990.61
2018-06-20T02:09:06.732Z,990.64
2018-06-20T02:10:06.741Z,990.61
2018-06-20T02:11:06.750Z,990.64
2018-06-20T02:12:06.753Z,990.61
2018-06-20T02:13:06.757Z,990.64
2018-06-20T02:14:06.763Z,990.62
2018-06-20T02:15:06.768Z,990.62
2018-06-20T02:16:06.775Z,990.62
2018-06-20T02:17:06.784Z,990.60
2018-06-20T02:18:06.786Z,990.63
2018-06-20T02:19:06.794Z,990.59
2018-06-20T02:20:06.799Z,990.62
2018-06-20T02:21:06.801Z,990.60
2018-06-20T02:22:06.811Z,990.58
2018-06-20T02:23:06.822Z,990.61
2018-06-20T02:24:06.829Z,990.60
2018-06-20T02:25:06.829Z,990.61
2018-06-20T02:26:06.833Z,990.59
2018-06-20T02:27:06.835Z,990.60
2018-06-20T02:28:06.847Z,990.61
2018-06-20T02:29:06.849Z,990.61
2018-06-20T02:30:06.853Z,990.58
2018-06-20T02:31:06.875Z,990.61
2018-06-20T02:32:06.868Z,990.60
2018-06-20T02:33:06.871Z,990.57
2018-06-20T02:34:06.877Z,990.64
2018-06-20T02:35:06.886Z,990.57
2018-06-20T02:36:06.887Z,990.57
2018-06-20T02:37:06.893Z,990.59
2018-06-20T02:38:06.901Z,990.53
2018-06-20T02:39:06.905Z,990.54
2018-06-20T02:40:06.914Z,990.54
2018-06-20T02:41:06.924Z,990.54
2018-06-20T02:42:06.925Z,990.54
2018-06-20T02:43:06.928Z,990.54
2018-06-20T02:44:06.931Z,990.56
2018-06-20T02:45:06.942Z,990.56
2018-06-20T02:46:06.943Z,990.54
2018-06-20T02:47:06.953Z,990.54
2018-06-20T02:48:06.963Z,990.54
2018-06-20T02:49:06.967Z,990.50
2018-06-20T02:50:06.970Z,990.49
2018-06-20T02:51:06.999Z,990.47
2018-06-20T02:52:06.977Z,990.49
2018-06-20T02:53:06.984Z,990.48
2018-06-20T02:54:07.001Z,990.48
2018-06-20T02:55:06.995Z,990.45
2018-06-20T02:56:07.012Z,990.44
2018-06-20T02:57:07.005Z,990.44
2018-06-20T02:58:07.014Z,990.46
2018-06-20T02:59:07.018Z,990.46
2018-06-20T03:00:07.027Z,990.42
2018-06-20T03:01:07.031Z,990.43
2018-06-20T03:02:07.036Z,990.39
2018-06-20T03:03:07.061Z,990.40
2018-06-20T03:04:07.048Z,990.37
2018-06-20T03:05:07.050Z,990.37
2018-06-20T03:06:07.071Z,990.39
2018-06-20T03:07:07.062Z,990.35
2018-06-20T03:08:07.069Z,990.36
2018-06-20T03:09:07.073Z,990.37
2018-06-20T03:10:07.084Z,990.36
2018-06-20T03:11:07.088Z,990.35
2018-06-20T03:12:07.092Z,990.38
2018-06-20T03:13:07.100Z,990.35
2018-06-20T03:14:07.113Z,990.37
2018-06-20T03:15:07.110Z,990.36
2018-06-20T03:16:07.117Z,990.40
2018-06-20T03:17:07.128Z,990.39
2018-06-20T03:18:07.135Z,990.40
2018-06-20T03:19:07.140Z,990.41
2018-06-20T03:20:07.137Z,990.39
2018-06-20T03:21:07.142Z,990.43
2018-06-20T03:22:07.147Z,990.40
2018-06-20T03:23:07.152Z,990.42
2018-06-20T03:24:07.165Z,990.43
2018-06-20T03:25:07.164Z,990.40
2018-06-20T03:26:07.175Z,990.43
2018-06-20T03:27:07.176Z,990.42
2018-06-20T03:28:07.181Z,990.40
2018-06-20T03:29:07.188Z,990.40
2018-06-20T03:30:07.211Z,990.42
2018-06-20T03:31:07.204Z,990.39
2018-06-20T03:32:07.207Z,990.38
2018-06-20T03:33:07.214Z,990.40
2018-06-20T03:34:07.219Z,990.39
2018-06-20T03:35:07.223Z,990.37
2018-06-20T03:36:07.227Z,990.38
2018-06-20T03:37:07.231Z,990.36
2018-06-20T03:38:07.240Z,990.38
2018-06-20T03:39:07.243Z,990.37
2018-06-20T03:40:07.264Z,990.39
2018-06-20T03:41:07.251Z,990.36
2018-06-20T03:42:07.260Z,990.35
2018-06-20T03:43:07.267Z,990.35
2018-06-20T03:44:07.272Z,990.34
2018-06-20T03:45:07.277Z,990.34
2018-06-20T03:46:07.282Z,990.36
2018-06-20T03:47:07.296Z,990.34
2018-06-20T03:48:07.298Z,990.31
2018-06-20T03:49:07.298Z,990.30
2018-06-20T03:50:07.306Z,990.30
2018-06-20T03:51:07.309Z,990.31
2018-06-20T03:52:07.317Z,990.26
2018-06-20T03:53:07.320Z,990.28
2018-06-20T03:54:07.330Z,990.31
2018-06-20T03:55:07.332Z,990.28
2018-06-20T03:56:07.339Z,990.30
2018-06-20T03:57:07.352Z,990.30
2018-06-20T03:58:07.351Z,990.31
2018-06-20T03:59:07.356Z,990.30
2018-06-20T04:00:07.360Z,990.30
2018-06-20T04:01:07.369Z,990.27
2018-06-20T04:02:07.369Z,990.27
2018-06-20T04:03:07.377Z,990.27
2018-06-20T04:04:07.380Z,990.31
2018-06-20T04:05:07.386Z,990.30
2018-06-20T04:06:07.392Z,990.29
2018-06-20T04:07:07.427Z,990.30
2018-06-20T04:08:07.401Z,990.28
2018-06-20T04:09:07.409Z,990.27
2018-06-20T04:10:07.415Z,990.24
2018-06-20T04:11:07.422Z,990.24
2018-06-20T04:12:07.424Z,990.25
2018-06-20T04:13:07.430Z,990.24
2018-06-20T04:14:07.438Z,990.29
2018-06-20T04:15:07.445Z,990.25
2018-06-20T04:16:07.486Z,990.27
2018-06-20T04:17:07.456Z,990.21
2018-06-20T04:18:07.460Z,990.22
2018-06-20T04:19:07.471Z,990.23
2018-06-20T04:20:07.470Z,990.23
2018-06-20T04:21:07.480Z,990.21
2018-06-20T04:22:07.483Z,990.22
2018-06-20T04:23:07.487Z,990.23
2018-06-20T04:24:07.492Z,990.23
2018-06-20T04:25:07.498Z,990.21
2018-06-20T04:26:07.504Z,990.19
2018-06-20T04:27:07.512Z,990.21
2018-06-20T04:28:07.574Z,990.22
2018-06-20T04:29:07.523Z,990.21
2018-06-20T04:30:07.525Z,990.22
2018-06-20T04:31:07.529Z,990.26
2018-06-20T04:32:07.536Z,990.24
2018-06-20T04:33:07.550Z,990.22
2018-06-20T04:34:07.553Z,990.24
2018-06-20T04:35:07.551Z,990.29
2018-06-20T04:36:07.561Z,990.22
2018-06-20T04:37:07.563Z,990.23
2018-06-20T04:38:07.573Z,990.21
2018-06-20T04:39:07.578Z,990.19
2018-06-20T04:40:07.580Z,990.20
2018-06-20T04:41:07.592Z,990.18
2018-06-20T04:42:07.608Z,990.18
2018-06-20T04:43:07.598Z,990.21
2018-06-20T04:44:07.602Z,990.22
2018-06-20T04:45:07.611Z,990.17
2018-06-20T04:46:07.621Z,990.15
2018-06-20T04:47:07.624Z,990.17
2018-06-20T04:48:07.625Z,990.15
2018-06-20T04:49:07.634Z,990.20
2018-06-20T04:50:07.642Z,990.17
2018-06-20T04:51:07.645Z,990.20
2018-06-20T04:52:07.648Z,990.16
2018-06-20T04:53:07.656Z,990.18
2018-06-20T04:54:07.657Z,990.21
2018-06-20T04:55:07.674Z,990.15
2018-06-20T04:56:07.673Z,990.14
2018-06-20T04:57:07.695Z,990.16
2018-06-20T04:58:07.685Z,990.15
2018-06-20T04:59:07.686Z,990.14
2018-06-20T05:00:07.693Z,990.16
2018-06-20T05:01:07.705Z,990.10
2018-06-20T05:02:07.708Z,990.13
2018-06-20T05:03:07.725Z,990.08
2018-06-20T05:04:07.716Z,990.12
2018-06-20T05:05:07.724Z,990.11
2018-06-20T05:06:07.735Z,990.10
2018-06-20T05:07:07.737Z,990.14
2018-06-20T05:08:07.739Z,990.12
2018-06-20T05:09:07.764Z,990.13
2018-06-20T05:10:07.753Z,990.12
2018-06-20T05:11:07.758Z,990.12
2018-06-20T05:12:07.771Z,990.12
2018-06-20T05:13:07.772Z,990.11
2018-06-20T05:14:07.777Z,990.04
2018-06-20T05:15:07.783Z,990.05
2018-06-20T05:16:07.786Z,990.07
2018-06-20T05:17:07.806Z,990.04
2018-06-20T05:18:07.799Z,990.10
2018-06-20T05:19:07.808Z,990.06
2018-06-20T05:20:07.813Z,990.09
2018-06-20T05:21:07.820Z,990.07
2018-06-20T05:22:07.848Z,990.11
2018-06-20T05:23:07.836Z,990.07
2018-06-20T05:24:07.842Z,990.09
2018-06-20T05:25:07.851Z,990.07
2018-06-20T05:26:07.847Z,990.09
2018-06-20T05:27:07.859Z,990.09
2018-06-20T05:28:07.865Z,990.07
2018-06-20T05:29:07.871Z,990.09
2018-06-20T05:30:07.872Z,990.11
2018-06-20T05:31:07.877Z,990.10
2018-06-20T05:32:07.883Z,990.08
2018-06-20T05:33:07.894Z,990.11
2018-06-20T05:34:07.897Z,990.10
2018-06-20T05:35:07.914Z,990.06
2018-06-20T05:36:07.909Z,990.10
2018-06-20T05:37:07.919Z,990.10
2018-06-20T05:38:07.921Z,990.10
2018-06-20T05:39:07.964Z,990.11
2018-06-20T05:40:07.938Z,990.10
2018-06-20T05:41:07.944Z,990.06
2018-06-20T05:42:07.958Z,990.10
2018-06-20T05:43:07.957Z,990.11
2018-06-20T05:44:07.975Z,990.08
2018-06-20T05:45:07.985Z,990.11
2018-06-20T05:46:07.971Z,990.06
2018-06-20T05:47:07.979Z,990.05
2018-06-20T05:48:08.012Z,990.08
2018-06-20T05:49:08.096Z,990.08
2018-06-20T05:50:08.052Z,990.06
2018-06-20T05:51:08.070Z,990.06
2018-06-20T05:52:08.022Z,990.09
2018-06-20T05:53:08.060Z,990.08
2018-06-20T05:54:08.043Z,990.05
2018-06-20T05:55:08.037Z,990.08
2018-06-20T05:56:08.045Z,990.07
2018-06-20T05:57:08.105Z,990.11
2018-06-20T05:58:08.073Z,990.09
2018-06-20T05:59:08.089Z,990.11
2018-06-20T06:00:08.068Z,990.07
2018-06-20T06:01:08.078Z,990.07
2018-06-20T06:02:08.081Z,990.13
2018-06-20T06:03:08.094Z,990.09
2018-06-20T06:04:08.096Z,990.08
2018-06-20T06:05:08.230Z,990.08
2018-06-20T06:06:08.127Z,990.09
2018-06-20T06:07:08.116Z,990.09
2018-06-20T06:08:08.128Z,990.10
2018-06-20T06:09:08.146Z,990.03
2018-06-20T06:10:08.132Z,990.05
2018-06-20T06:11:08.138Z,990.05
2018-06-20T06:12:08.153Z,990.04
2018-06-20T06:13:08.151Z,990.04
2018-06-20T06:14:08.168Z,990.02
2018-06-20T06:15:08.166Z,990.03
2018-06-20T06:16:08.182Z,990.05
2018-06-20T06:17:08.203Z,990.00
2018-06-20T06:18:08.188Z,990.00
2018-06-20T06:19:08.194Z,990.01
2018-06-20T06:20:08.204Z,990.08
2018-06-20T06:21:08.223Z,990.03
2018-06-20T06:22:08.222Z,990.07
2018-06-20T06:23:08.239Z,990.07
2018-06-20T06:24:08.280Z,990.04
2018-06-20T06:25:08.254Z,990.05
2018-06-20T06:26:08.257Z,990.03
2018-06-20T06:27:08.253Z,990.07
2018-06-20T06:28:08.259Z,990.07
2018-06-20T06:29:08.289Z,990.05
2018-06-20T06:30:08.276Z,990.07
2018-06-20T06:31:08.280Z,990.08
2018-06-20T06:32:08.290Z,990.04
2018-06-20T06:33:08.294Z,990.02
2018-06-20T06:34:08.308Z,989.97
2018-06-20T06:35:08.311Z,990.07
2018-06-20T06:36:08.319Z,990.02
2018-06-20T06:37:08.329Z,990.00
2018-06-20T06:38:08.331Z,989.98
2018-06-20T06:39:08.339Z,989.98
2018-06-20T06:40:08.345Z,989.99
2018-06-20T06:41:08.362Z,989.97
2018-06-20T06:42:08.360Z,989.93
2018-06-20T06:43:08.376Z,989.96
2018-06-20T06:44:08.375Z,989.97
2018-06-20T06:45:08.395Z,989.96
2018-06-20T06:46:08.404Z,990.00
2018-06-20T06:47:08.399Z,989.99
2018-06-20T06:48:08.403Z,990.00
2018-06-20T06:49:08.416Z,990.01
2018-06-20T06:50:08.625Z,990.01
2018-06-20T06:51:08.431Z,989.99
2018-06-20T06:52:08.451Z,990.02
2018-06-20T06:53:08.446Z,990.00
2018-06-20T06:54:08.453Z,989.94
2018-06-20T06:55:08.460Z,989.94
2018-06-20T06:56:08.559Z,989.97
2018-06-20T06:57:08.486Z,989.93
2018-06-20T06:58:08.489Z,989.95
2018-06-20T06:59:08.491Z,989.91
2018-06-20T07:00:08.507Z,989.92
2018-06-20T07:01:08.506Z,989.89
2018-06-20T07:02:08.517Z,989.89
2018-06-20T07:03:08.522Z,989.93
2018-06-20T07:04:08.602Z,989.91
2018-06-20T07:05:08.542Z,989.91
2018-06-20T07:06:08.548Z,989.93
2018-06-20T07:07:08.560Z,989.93
2018-06-20T07:08:08.593Z,989.92
2018-06-20T07:09:08.572Z,989.89
2018-06-20T07:10:08.582Z,989.90
2018-06-20T07:11:08.584Z,989.90
2018-06-20T07:12:08.608Z,989.84
2018-06-20T07:13:08.633Z,989.86
2018-06-20T07:14:08.614Z,989.85
2018-06-20T07:15:08.618Z,989.83
2018-06-20T07:16:08.625Z,989.81
2018-06-20T07:17:08.639Z,989.84
2018-06-20T07:18:08.661Z,989.83
2018-06-20T07:19:08.658Z,989.81
2018-06-20T07:20:08.669Z,989.84
2018-06-20T07:21:08.682Z,989.81
2018-06-20T07:22:08.679Z,989.83
2018-06-20T07:23:08.685Z,989.82
2018-06-20T07:24:08.733Z,989.81
2018-06-20T07:25:08.705Z,989.83
2018-06-20T07:26:08.733Z,989.86
2018-06-20T07:27:08.719Z,989.84
2018-06-20T07:28:08.722Z,989.87
2018-06-20T07:29:08.744Z,989.86
2018-06-20T07:30:08.782Z,989.84
2018-06-20T07:31:08.770Z,989.84
2018-06-20T07:32:08.761Z,989.84
2018-06-20T07:33:08.775Z,989.87
2018-06-20T07:34:08.806Z,989.86
2018-06-20T07:35:08.784Z,989.86
2018-06-20T07:36:08.911Z,989.89
2018-06-20T07:37:08.805Z,989.89
2018-06-20T07:38:08.810Z,989.85
2018-06-20T07:39:08.836Z,989.81
2018-06-20T07:40:08.830Z,989.82
2018-06-20T07:41:08.835Z,989.80
2018-06-20T07:42:08.852Z,989.81
2018-06-20T07:43:08.889Z,989.76
2018-06-20T07:44:08.872Z,989.73
2018-06-20T07:45:08.919Z,989.73
2018-06-20T07:46:08.883Z,989.73
2018-06-20T07:47:08.899Z,989.76
2018-06-20T07:48:08.954Z,989.73
2018-06-20T07:49:09.051Z,989.74
2018-06-20T07:50:08.920Z,989.74
2018-06-20T07:51:08.942Z,989.70
2018-06-20T07:52:08.932Z,989.72
2018-06-20T07:53:08.953Z,989.69
2018-06-20T07:54:08.967Z,989.71
2018-06-20T07:55:08.997Z,989.68
2018-06-20T07:56:08.988Z,989.69
2018-06-20T07:57:09.000Z,989.69
2018-06-20T07:58:09.030Z,989.70
2018-06-20T07:59:09.007Z,989.71
2018-06-20T08:00:09.008Z,989.77
2018-06-20T08:01:09.072Z,989.71
2018-06-20T08:02:09.020Z,989.70
2018-06-20T08:03:09.031Z,989.70
2018-06-20T08:04:09.056Z,989.69
2018-06-20T08:05:09.134Z,989.69
2018-06-20T08:06:09.057Z,989.67
2018-06-20T08:07:09.089Z,989.67
2018-06-20T08:08:09.080Z,989.64
2018-06-20T08:09:09.202Z,989.64
2018-06-20T08:10:09.213Z,989.67
2018-06-20T08:11:09.106Z,989.62
2018-06-20T08:12:09.118Z,989.64
2018-06-20T08:13:09.132Z,989.66
2018-06-20T08:14:09.137Z,989.66
2018-06-20T08:15:09.147Z,989.65
2018-06-20T08:16:09.150Z,989.64
2018-06-20T08:17:09.161Z,989.65
2018-06-20T08:18:09.189Z,989.64
2018-06-20T08:19:09.189Z,989.62
2018-06-20T08:20:09.212Z,989.62
2018-06-20T08:21:10.210Z,989.64
2018-06-20T08:22:09.209Z,989.61
2018-06-20T08:23:09.215Z,989.64
2018-06-20T08:24:09.317Z,989.61
2018-06-20T08:25:11.891Z,989.64
2018-06-20T08:26:09.285Z,989.63
2018-06-20T08:27:09.257Z,989.63
2018-06-20T08:28:10.154Z,989.56
2018-06-20T08:29:09.294Z,989.57
2018-06-20T08:30:09.299Z,989.58
2018-06-20T08:31:09.309Z,989.57
2018-06-20T08:32:09.310Z,989.56
2018-06-20T08:33:09.315Z,989.54
2018-06-20T08:34:09.325Z,989.54
2018-06-20T08:35:09.428Z,989.55
2018-06-20T08:36:09.654Z,989.52
2018-06-20T08:37:09.394Z,989.57
2018-06-20T08:38:09.397Z,989.53
2018-06-20T08:39:09.377Z,989.54
2018-06-20T08:40:09.397Z,989.54
2018-06-20T08:41:09.390Z,989.49
2018-06-20T08:42:09.527Z,989.49
2018-06-20T08:43:09.418Z,989.50
2018-06-20T08:44:09.420Z,989.48
2018-06-20T08:45:09.508Z,989.49
2018-06-20T08:46:09.446Z,989.48
2018-06-20T08:47:09.499Z,989.46
2018-06-20T08:48:09.530Z,989.50
2018-06-20T08:49:09.495Z,989.47
2018-06-20T08:50:09.540Z,989.46
2018-06-20T08:51:09.526Z,989.39
2018-06-20T08:52:10.263Z,989.43
2018-06-20T08:53:09.659Z,989.44
2018-06-20T08:54:09.597Z,989.42
2018-06-20T08:55:09.563Z,989.43
2018-06-20T08:56:09.671Z,989.42
2018-06-20T08:57:09.585Z,989.45
2018-06-20T08:58:09.676Z,989.46
2018-06-20T08:59:09.592Z,989.41
2018-06-20T09:00:09.591Z,989.42
2018-06-20T09:01:09.629Z,989.43
2018-06-20T09:02:09.623Z,989.42
2018-06-20T09:03:09.625Z,989.41
2018-06-20T09:04:09.630Z,989.41
2018-06-20T09:05:09.688Z,989.39
2018-06-20T09:06:09.729Z,989.41
2018-06-20T09:07:09.687Z,989.41
2018-06-20T09:08:09.707Z,989.37
2018-06-20T09:09:09.774Z,989.40
2018-06-20T09:10:09.801Z,989.38
2018-06-20T09:11:09.766Z,989.38
2018-06-20T09:12:09.745Z,989.40
2018-06-20T09:13:09.767Z,989.38
2018-06-20T09:14:09.760Z,989.34
2018-06-20T09:15:09.851Z,989.37
2018-06-20T09:16:09.772Z,989.38
2018-06-20T09:17:09.764Z,989.37
2018-06-20T09:18:09.788Z,989.35
2018-06-20T09:19:09.789Z,989.30
2018-06-20T09:20:09.812Z,989.34
2018-06-20T09:21:09.812Z,989.33
2018-06-20T09:22:09.837Z,989.34
2018-06-20T09:23:09.844Z,989.32
2018-06-20T09:24:09.850Z,989.31
2018-06-20T09:25:09.860Z,989.29
2018-06-20T09:26:09.876Z,989.25
2018-06-20T09:27:09.873Z,989.27
2018-06-20T09:28:09.903Z,989.26
2018-06-20T09:29:09.895Z,989.25
2018-06-20T09:30:09.971Z,989.28
2018-06-20T09:31:09.922Z,989.30
2018-06-20T09:32:09.933Z,989.26
2018-06-20T09:33:09.938Z,989.25
2018-06-20T09:34:09.956Z,989.31
2018-06-20T09:35:09.992Z,989.26
2018-06-20T09:36:09.984Z,989.30
2018-06-20T09:37:10.110Z,989.31
2018-06-20T09:38:10.002Z,989.31
2018-06-20T09:39:10.012Z,989.24
2018-06-20T09:40:10.015Z,989.29
2018-06-20T09:41:10.031Z,989.27
2018-06-20T09:42:10.053Z,989.29
2018-06-20T09:43:10.055Z,989.30
2018-06-20T09:44:10.141Z,989.27
2018-06-20T09:45:10.155Z,989.25
2018-06-20T09:46:10.153Z,989.25
2018-06-20T09:47:10.222Z,989.22
2018-06-20T09:48:10.168Z,989.23
2018-06-20T09:49:10.261Z,989.24
2018-06-20T09:50:10.217Z,989.22
2018-06-20T09:51:10.657Z,989.22
2018-06-20T09:52:10.189Z,989.21
2018-06-20T09:53:11.222Z,989.20
2018-06-20T09:54:10.300Z,989.23
2018-06-20T09:55:10.266Z,989.20
2018-06-20T09:56:10.260Z,989.16
2018-06-20T09:57:10.251Z,989.18
2018-06-20T09:58:10.323Z,989.17
2018-06-20T09:59:10.312Z,989.13
2018-06-20T10:00:10.338Z,989.16
2018-06-20T10:01:10.375Z,989.17
2018-06-20T10:02:10.383Z,989.16
2018-06-20T10:03:10.366Z,989.16
2018-06-20T10:04:10.411Z,989.18
2018-06-20T10:05:10.385Z,989.16
2018-06-20T10:06:10.375Z,989.15
2018-06-20T10:07:10.389Z,989.12
2018-06-20T10:08:10.405Z,989.10
2018-06-20T10:09:10.415Z,989.04
2018-06-20T10:10:10.468Z,989.06
2018-06-20T10:11:10.473Z,989.07
2018-06-20T10:12:10.447Z,989.07
2018-06-20T10:13:10.518Z,989.04
2018-06-20T10:14:10.527Z,989.05
2018-06-20T10:15:10.463Z,989.07
2018-06-20T10:16:10.472Z,989.08
2018-06-20T10:17:10.453Z,989.09
2018-06-20T10:18:10.469Z,989.08
2018-06-20T10:19:10.478Z,989.07
2018-06-20T10:20:10.489Z,989.06
2018-06-20T10:21:10.516Z,989.06
2018-06-20T10:22:10.525Z,989.05
2018-06-20T10:23:10.532Z,989.02
2018-06-20T10:24:10.542Z,989.02
2018-06-20T10:25:10.549Z,989.00
2018-06-20T10:26:10.562Z,989.00
2018-06-20T10:27:10.579Z,989.00
2018-06-20T10:28:10.591Z,988.97
2018-06-20T10:29:10.598Z,988.94
2018-06-20T10:30:10.610Z,988.95
2018-06-20T10:31:10.624Z,988.94
2018-06-20T10:32:10.638Z,988.97
2018-06-20T10:33:10.654Z,988.94
2018-06-20T10:34:10.696Z,988.96
2018-06-20T10:35:10.675Z,988.93
2018-06-20T10:36:10.694Z,988.91
2018-06-20T10:37:10.700Z,988.89
2018-06-20T10:38:10.708Z,988.91
2018-06-20T10:39:10.723Z,988.84
2018-06-20T10:40:10.766Z,988.84
2018-06-20T10:41:10.747Z,988.83
2018-06-20T10:42:10.762Z,988.82
2018-06-20T10:43:10.778Z,988.85
2018-06-20T10:44:10.789Z,988.84
2018-06-20T10:45:10.803Z,988.79
2018-06-20T10:46:10.827Z,988.82
2018-06-20T10:47:10.827Z,988.80
2018-06-20T10:48:10.839Z,988.78
2018-06-20T10:49:10.856Z,988.79
2018-06-20T10:50:10.861Z,988.78
2018-06-20T10:51:10.873Z,988.76
2018-06-20T10:52:10.886Z,988.72
2018-06-20T10:53:10.902Z,988.73
2018-06-20T10:54:10.917Z,988.71
2018-06-20T10:55:10.927Z,988.69
2018-06-20T10:56:10.937Z,988.74
2018-06-20T10:57:10.953Z,988.67
2018-06-20T10:58:10.963Z,988.68
2018-06-20T10:59:11.032Z,988.65
2018-06-20T11:00:11.159Z,988.69
2018-06-20T11:01:11.052Z,988.64
2018-06-20T11:02:11.048Z,988.66
2018-06-20T11:03:11.055Z,988.64
2018-06-20T11:04:11.076Z,988.64
2018-06-20T11:05:11.220Z,988.58
2018-06-20T11:06:11.069Z,988.57
2018-06-20T11:07:11.474Z,988.57
2018-06-20T11:08:12.113Z,988.53
2018-06-20T11:09:11.230Z,988.54
2018-06-20T11:10:11.130Z,988.56
2018-06-20T11:11:11.144Z,988.53
2018-06-20T11:12:11.151Z,988.50
2018-06-20T11:13:11.171Z,988.50
2018-06-20T11:14:11.407Z,988.48
2018-06-20T11:15:11.310Z,988.49
2018-06-20T11:16:11.242Z,988.46
2018-06-20T11:17:11.226Z,988.51
2018-06-20T11:18:11.250Z,988.44
2018-06-20T11:19:11.249Z,988.44
2018-06-20T11:20:11.257Z,988.48
2018-06-20T11:21:11.342Z,988.44
2018-06-20T11:22:11.323Z,988.40
2018-06-20T11:23:11.351Z,988.38
2018-06-20T11:24:11.306Z,988.35
2018-06-20T11:25:11.416Z,988.33
2018-06-20T11:26:11.333Z,988.36
2018-06-20T11:27:11.350Z,988.35
2018-06-20T11:28:11.466Z,988.31
2018-06-20T11:29:11.462Z,988.36
2018-06-20T11:30:11.491Z,988.36
2018-06-20T11:31:11.446Z,988.35
2018-06-20T11:32:11.434Z,988.33
2018-06-20T11:33:11.439Z,988.32
2018-06-20T11:34:11.515Z,988.34
2018-06-20T11:35:11.461Z,988.28
2018-06-20T11:36:11.483Z,988.31
2018-06-20T11:37:11.492Z,988.27
2018-06-20T11:38:11.502Z,988.27
2018-06-20T11:39:11.552Z,988.30
2018-06-20T11:40:11.525Z,988.27
2018-06-20T11:41:11.549Z,988.28
2018-06-20T11:42:11.560Z,988.24
2018-06-20T11:43:11.565Z,988.22
2018-06-20T11:44:11.600Z,988.18
2018-06-20T11:45:11.595Z,988.22
2018-06-20T11:46:11.613Z,988.20
2018-06-20T11:47:11.627Z,988.18
2018-06-20T11:48:11.630Z,988.17
2018-06-20T11:49:11.684Z,988.17
2018-06-20T11:50:11.677Z,988.18
2018-06-20T11:51:12.373Z,988.19
2018-06-20T11:52:12.226Z,988.16
2018-06-20T11:53:12.351Z,988.18
2018-06-20T11:54:11.909Z,988.10
2018-06-20T11:55:13.498Z,988.12
2018-06-20T11:56:13.508Z,988.10
2018-06-20T11:57:11.781Z,988.05
2018-06-20T11:58:11.848Z,988.09
2018-06-20T11:59:11.814Z,988.09
2018-06-20T12:00:11.840Z,988.10
2018-06-20T12:01:11.833Z,988.06
2018-06-20T12:02:11.901Z,988.08
2018-06-20T12:03:11.891Z,988.11
2018-06-20T12:04:11.852Z,988.05
2018-06-20T12:05:11.870Z,988.07
2018-06-20T12:06:11.934Z,988.05
2018-06-20T12:07:11.901Z,988.01
2018-06-20T12:08:11.968Z,988.01
2018-06-20T12:09:11.972Z,987.99
2018-06-20T12:10:12.030Z,987.97
2018-06-20T12:11:12.705Z,987.98
2018-06-20T12:12:12.074Z,987.96
2018-06-20T12:13:12.055Z,987.96
2018-06-20T12:14:12.069Z,987.96
2018-06-20T12:15:12.061Z,987.93
2018-06-20T12:16:12.079Z,987.90
2018-06-20T12:17:12.108Z,987.85
2018-06-20T12:18:12.089Z,987.84
2018-06-20T12:19:12.123Z,987.84
2018-06-20T12:20:12.152Z,987.84
2018-06-20T12:21:12.198Z,987.88
2018-06-20T12:22:12.805Z,987.87
2018-06-20T12:23:12.182Z,987.85
2018-06-20T12:24:12.225Z,987.85
2018-06-20T12:25:12.229Z,987.77
2018-06-20T12:26:12.262Z,987.80
2018-06-20T12:27:12.236Z,987.78
2018-06-20T12:28:12.295Z,987.79